Time;durP1;ratioP1;P1;durP2;ratioP2;P2;SDS_P1;SDS_P2;PMS_P1;PMS_P2;Temp;Humidity;BMP_temperature;BMP_pressure;BME280_temperature;BME280_humidity;BME280_pressure;Samples;Min_cycle;Max_cycle;Signal;HPM_P1;HPM_P2
2022/04/28 00:00:54;;;;;;;5.67;5.07;;;10.40;99.90;;;;;;5068924;28;20227;-72
2022/04/28 00:03:20;;;;;;;7.67;6.03;;;10.30;99.90;;;;;;5067906;28;20939;-72
2022/04/28 00:05:46;;;;;;;7.10;5.70;;;10.40;99.90;;;;;;5068633;28;20441;-73
2022/04/28 00:08:12;;;;;;;6.43;5.40;;;10.30;99.90;;;;;;5067874;28;20198;-73
2022/04/28 00:10:38;;;;;;;9.27;5.57;;;10.30;99.90;;;;;;5069058;28;20173;-73
2022/04/28 00:13:06;;;;;;;10.50;6.50;;;10.20;99.90;;;;;;5068178;28;20658;-72
2022/04/28 00:15:31;;;;;;;7.07;6.13;;;10.20;99.90;;;;;;5066289;28;20754;-73
2022/04/28 00:17:57;;;;;;;7.27;5.97;;;10.10;99.90;;;;;;5068869;28;20418;-72
2022/04/28 00:20:23;;;;;;;7.50;5.60;;;10.10;99.90;;;;;;5068091;28;20222;-72
2022/04/28 00:22:49;;;;;;;6.50;5.63;;;10.00;99.90;;;;;;5067371;28;20234;-72
2022/04/28 00:25:15;;;;;;;6.60;5.90;;;9.90;99.90;;;;;;5067750;28;20804;-73
2022/04/28 00:27:40;;;;;;;7.30;5.13;;;9.90;99.90;;;;;;5068486;28;20419;-72
2022/04/28 00:30:08;;;;;;;6.20;5.37;;;9.90;99.90;;;;;;5067296;28;20461;-72
2022/04/28 00:32:35;;;;;;;6.13;5.53;;;9.90;99.90;;;;;;5067799;28;20275;-73
2022/04/28 00:35:01;;;;;;;6.30;5.70;;;9.90;99.90;;;;;;5066083;28;20462;-72
2022/04/28 00:37:26;;;;;;;6.60;5.90;;;9.90;99.90;;;;;;5067087;28;20480;-73
2022/04/28 00:39:53;;;;;;;6.33;5.70;;;9.80;99.90;;;;;;5066505;28;20468;-73
2022/04/28 00:42:19;;;;;;;7.33;5.50;;;9.80;99.90;;;;;;5067210;28;20203;-73
2022/04/28 00:44:46;;;;;;;6.20;5.60;;;9.80;99.90;;;;;;5067622;28;20863;-71
2022/04/28 00:47:11;;;;;;;6.67;6.00;;;9.80;99.90;;;;;;5066050;28;20435;-73
2022/04/28 00:52:22;;;;;;;6.10;5.50;;;9.70;99.90;;;;;;5066957;28;20211;-73
2022/04/28 00:54:51;;;;;;;6.73;6.03;;;9.60;99.90;;;;;;5065677;28;20458;-73
2022/04/28 00:57:18;;;;;;;7.40;5.77;;;9.50;99.90;;;;;;5066272;28;20794;-73
2022/04/28 00:59:45;;;;;;;7.13;5.97;;;9.50;99.90;;;;;;5065007;28;20484;-72
2022/04/28 01:02:11;;;;;;;9.17;6.13;;;9.40;99.90;;;;;;5059984;28;20511;-72
2022/04/28 01:04:38;;;;;;;10.40;5.67;;;9.30;99.90;;;;;;5066820;28;20438;-72
2022/04/28 01:07:07;;;;;;;8.27;5.57;;;9.20;99.90;;;;;;5065467;28;20180;-73
2022/04/28 01:09:37;;;;;;;5.83;5.23;;;9.10;99.90;;;;;;5068059;28;20402;-72
2022/04/28 01:12:06;;;;;;;6.60;5.90;;;9.10;99.90;;;;;;5064927;28;20429;-72
2022/04/28 01:14:32;;;;;;;6.47;5.70;;;9.10;99.90;;;;;;5062907;28;20469;-72
2022/04/28 01:17:01;;;;;;;6.73;5.93;;;9.20;99.90;;;;;;5066376;28;20497;-72
2022/04/28 01:19:26;;;;;;;11.53;5.97;;;9.00;99.90;;;;;;5066699;28;20673;-72
2022/04/28 01:21:52;;;;;;;10.43;5.70;;;8.90;99.90;;;;;;5066496;28;20438;-73
2022/04/28 01:24:18;;;;;;;7.27;6.40;;;8.90;99.90;;;;;;5066963;28;20200;-72
2022/04/28 01:26:44;;;;;;;7.23;5.97;;;8.80;99.90;;;;;;5065569;28;20199;-72
2022/04/28 01:29:10;;;;;;;6.00;5.40;;;8.80;99.90;;;;;;5066513;28;20169;-73
2022/04/28 01:31:36;;;;;;;6.80;6.10;;;8.70;99.90;;;;;;5064974;28;20430;-72
2022/04/28 01:34:01;;;;;;;7.83;6.00;;;8.60;99.90;;;;;;5067096;28;20204;-73
2022/04/28 01:36:27;;;;;;;6.23;5.57;;;8.60;99.90;;;;;;5065364;28;20229;-73
2022/04/28 01:38:53;;;;;;;6.80;6.10;;;8.60;99.90;;;;;;5065482;28;20199;-72
2022/04/28 01:41:19;;;;;;;7.43;6.00;;;8.60;99.90;;;;;;5066326;28;20754;-72
2022/04/28 01:43:45;;;;;;;10.13;6.20;;;8.50;99.90;;;;;;5066474;28;20689;-73
2022/04/28 01:46:11;;;;;;;7.30;6.27;;;8.50;99.90;;;;;;5065778;28;20181;-72
2022/04/28 01:48:37;;;;;;;7.43;5.77;;;8.60;99.90;;;;;;5065737;28;20180;-73
2022/04/28 01:56:30;;;;;;;7.60;6.30;;;8.50;99.90;;;;;;5071188;28;20808;-73
2022/04/28 01:58:56;;;;;;;6.80;5.83;;;8.40;99.90;;;;;;5063074;28;20402;-72
2022/04/28 02:01:22;;;;;;;7.87;6.10;;;8.40;99.90;;;;;;5068386;28;20229;-73
2022/04/28 02:03:48;;;;;;;7.90;5.67;;;8.30;99.90;;;;;;5071548;28;20189;-74
2022/04/28 02:06:14;;;;;;;8.67;6.13;;;8.30;99.90;;;;;;5070295;28;20434;-73
2022/04/28 02:08:39;;;;;;;6.97;5.73;;;8.20;99.90;;;;;;5070173;28;20669;-72
2022/04/28 02:11:06;;;;;;;7.60;6.60;;;8.10;99.90;;;;;;5068638;28;20657;-72
2022/04/28 02:13:32;;;;;;;8.80;7.03;;;8.10;99.90;;;;;;5071171;28;20199;-73
2022/04/28 02:15:57;;;;;;;8.00;6.47;;;8.00;99.90;;;;;;5069737;28;20505;-73
2022/04/28 02:18:23;;;;;;;9.57;7.27;;;7.90;99.90;;;;;;5071351;28;20200;-72
2022/04/28 02:20:48;;;;;;;8.00;6.73;;;7.90;99.90;;;;;;5070510;28;20519;-72
2022/04/28 02:23:14;;;;;;;7.33;6.57;;;7.90;99.90;;;;;;5070257;28;20258;-72
2022/04/28 02:25:39;;;;;;;8.03;6.43;;;7.80;99.90;;;;;;5068702;28;20172;-72
2022/04/28 02:28:05;;;;;;;7.90;6.83;;;7.80;99.90;;;;;;5071297;28;20176;-72
2022/04/28 02:30:31;;;;;;;7.67;6.40;;;7.70;99.90;;;;;;5068796;28;20512;-73
2022/04/28 02:33:08;;;;;;;7.20;6.10;;;7.70;99.90;;;;;;5069067;28;20215;-72
2022/04/28 02:35:34;;;;;;;8.67;6.47;;;7.60;99.90;;;;;;5068748;28;20180;-72
2022/04/28 02:37:59;;;;;;;7.57;6.77;;;6.90;99.90;;;;;;5069467;28;20517;-72
2022/04/28 02:40:25;;;;;;;10.00;6.60;;;7.40;99.90;;;;;;5069301;28;20173;-72
2022/04/28 02:42:50;;;;;;;8.33;6.40;;;7.30;99.90;;;;;;5068014;28;20195;-72
2022/04/28 02:45:16;;;;;;;10.43;6.50;;;7.30;99.90;;;;;;5069076;28;20268;-72
2022/04/28 02:47:41;;;;;;;8.20;6.60;;;7.30;99.90;;;;;;5068700;28;20169;-73
2022/04/28 02:50:11;;;;;;;14.70;6.87;;;7.20;99.90;;;;;;5069936;28;20305;-73
2022/04/28 02:52:38;;;;;;;9.20;7.10;;;7.10;99.90;;;;;;5069706;28;20313;-71
2022/04/28 02:55:04;;;;;;;7.67;6.77;;;7.00;99.90;;;;;;5065799;28;20465;-72
2022/04/28 02:57:29;;;;;;;8.43;6.90;;;7.00;99.90;;;;;;5068390;28;20419;-72
2022/04/28 02:59:55;;;;;;;9.43;6.80;;;7.00;99.90;;;;;;5068264;28;20164;-72
2022/04/28 03:02:20;;;;;;;6.90;6.20;;;6.90;99.90;;;;;;5069129;28;20184;-72
2022/04/28 03:04:46;;;;;;;9.57;6.97;;;6.80;99.90;;;;;;5069628;28;20212;-71
2022/04/28 03:12:40;;;;;;;7.70;6.50;;;6.90;99.90;;;;;;5070553;28;20453;-72
2022/04/28 03:15:06;;;;;;;9.60;7.33;;;6.90;99.90;;;;;;5067887;28;20925;-72
2022/04/28 03:17:33;;;;;;;7.67;6.80;;;6.90;99.90;;;;;;5069825;28;20255;-72
2022/04/28 03:19:58;;;;;;;8.93;7.33;;;6.90;99.90;;;;;;5067638;28;20426;-72
2022/04/28 03:22:24;;;;;;;7.90;6.57;;;6.90;99.90;;;;;;5069784;28;20505;-72
2022/04/28 03:24:49;;;;;;;15.63;6.67;;;6.90;99.90;;;;;;5068316;28;20220;-73
2022/04/28 03:27:15;;;;;;;10.47;7.57;;;6.80;99.90;;;;;;5070040;28;20268;-72
2022/04/28 03:29:41;;;;;;;7.70;6.90;;;6.70;99.90;;;;;;5070245;28;20179;-72
2022/04/28 03:32:10;;;;;;;10.33;8.13;;;6.70;99.90;;;;;;5067866;28;20626;-73
2022/04/28 03:34:35;;;;;;;10.33;7.40;;;6.60;99.90;;;;;;5067355;28;20210;-72
2022/04/28 03:37:01;;;;;;;9.30;6.70;;;6.50;99.90;;;;;;5068487;28;20427;-73
2022/04/28 03:39:26;;;;;;;8.70;6.50;;;6.40;99.90;;;;;;5067556;28;20176;-72
2022/04/28 03:41:52;;;;;;;8.63;6.97;;;6.40;99.90;;;;;;5068544;28;20247;-73
2022/04/28 03:44:17;;;;;;;10.60;7.23;;;6.30;99.90;;;;;;5069561;28;20210;-72
2022/04/28 03:46:43;;;;;;;8.63;7.00;;;6.30;99.90;;;;;;5068614;28;20204;-72
2022/04/28 03:49:08;;;;;;;8.40;6.33;;;6.20;99.90;;;;;;5068368;28;20185;-72
2022/04/28 03:51:34;;;;;;;6.93;6.23;;;6.20;99.90;;;;;;5069361;28;20179;-73
2022/04/28 03:54:00;;;;;;;8.73;6.77;;;6.10;99.90;;;;;;5067510;28;20303;-72
2022/04/28 03:56:31;;;;;;;8.33;6.83;;;6.00;99.90;;;;;;5067452;28;20180;-73
2022/04/28 03:59:01;;;;;;;10.00;7.07;;;6.00;99.90;;;;;;5059604;28;20191;-72
2022/04/28 04:01:27;;;;;;;7.83;6.43;;;6.00;99.90;;;;;;5067632;28;20517;-72
2022/04/28 04:03:53;;;;;;;7.17;6.20;;;5.90;99.90;;;;;;5068945;28;21034;-73
2022/04/28 04:06:19;;;;;;;8.60;6.70;;;5.90;99.90;;;;;;5067135;28;20434;-72
2022/04/28 04:08:45;;;;;;;8.73;6.73;;;5.80;99.90;;;;;;5067093;28;20624;-73
2022/04/28 04:11:14;;;;;;;8.43;7.20;;;5.80;99.90;;;;;;5067971;28;20446;-72
2022/04/28 04:13:40;;;;;;;9.93;7.40;;;5.90;99.90;;;;;;5067968;28;20552;-72
2022/04/28 04:16:05;;;;;;;8.57;7.17;;;5.90;99.90;;;;;;5067815;28;20857;-72
2022/04/28 04:18:31;;;;;;;10.03;7.17;;;5.80;99.90;;;;;;5067355;28;20256;-72
2022/04/28 04:20:57;;;;;;;10.10;6.43;;;5.80;99.90;;;;;;5067990;28;20176;-72
2022/04/28 04:23:22;;;;;;;9.60;7.47;;;5.90;99.90;;;;;;5066536;28;20447;-72
2022/04/28 04:25:48;;;;;;;9.93;7.20;;;5.90;99.90;;;;;;5068056;28;20814;-72
2022/04/28 04:28:14;;;;;;;9.60;7.30;;;6.00;99.90;;;;;;5067521;28;20177;-72
2022/04/28 04:33:24;;;;;;;9.87;6.90;;;6.00;99.90;;;;;;5067496;28;20218;-73
2022/04/28 04:35:49;;;;;;;11.97;8.00;;;6.00;99.90;;;;;;5068507;28;20411;-72
2022/04/28 04:38:15;;;;;;;11.90;7.30;;;6.00;99.90;;;;;;5067110;28;20203;-73
2022/04/28 04:40:40;;;;;;;17.37;7.60;;;6.00;99.90;;;;;;5067654;28;20555;-72
2022/04/28 04:43:13;;;;;;;8.30;7.13;;;6.10;99.90;;;;;;5066897;28;20670;-72
2022/04/28 04:45:42;;;;;;;11.60;7.83;;;6.00;99.90;;;;;;5066894;28;20184;-72
2022/04/28 04:48:08;;;;;;;10.50;7.17;;;6.00;99.90;;;;;;5067891;28;20426;-72
2022/04/28 04:50:34;;;;;;;8.60;6.93;;;6.00;99.90;;;;;;5066006;28;20936;-72
2022/04/28 04:52:59;;;;;;;9.90;6.97;;;6.00;99.90;;;;;;5063492;28;20447;-71
2022/04/28 04:55:25;;;;;;;8.27;7.23;;;6.10;99.90;;;;;;5066330;28;20247;-72
2022/04/28 04:57:50;;;;;;;12.07;7.90;;;6.10;99.90;;;;;;5067571;28;20172;-72
2022/04/28 05:00:16;;;;;;;10.40;7.50;;;6.20;99.90;;;;;;5066216;28;20191;-72
2022/04/28 05:02:41;;;;;;;10.43;7.90;;;6.20;99.90;;;;;;5067360;28;20176;-73
2022/04/28 05:05:07;;;;;;;10.20;7.80;;;6.30;99.90;;;;;;5066966;28;20245;-73
2022/04/28 05:07:33;;;;;;;11.20;8.30;;;6.40;99.90;;;;;;5067910;28;20180;-73
2022/04/28 05:09:59;;;;;;;9.90;7.17;;;6.50;99.90;;;;;;5065865;28;20418;-73
2022/04/28 05:12:24;;;;;;;9.87;7.20;;;6.60;99.90;;;;;;5066888;28;20332;-71
2022/04/28 05:14:50;;;;;;;14.30;7.40;;;6.60;99.90;;;;;;5064967;28;20619;-71
2022/04/28 05:17:16;;;;;;;10.90;8.00;;;6.70;99.90;;;;;;5067520;28;20531;-72
2022/04/28 05:19:42;;;;;;;10.97;8.33;;;6.80;99.90;;;;;;5066431;28;20262;-72
2022/04/28 05:22:07;;;;;;;10.77;8.00;;;6.90;99.90;;;;;;5068022;28;20438;-72
2022/04/28 05:24:33;;;;;;;11.10;7.07;;;7.00;99.90;;;;;;5066488;28;20255;-72
2022/04/28 05:26:59;;;;;;;15.07;7.60;;;7.10;99.90;;;;;;5068356;28;20241;-72
2022/04/28 05:29:24;;;;;;;9.00;7.53;;;7.20;99.90;;;;;;5064593;28;20192;-71
2022/04/28 05:31:50;;;;;;;8.57;7.30;;;7.30;99.90;;;;;;5067127;28;20441;-72
2022/04/28 05:34:15;;;;;;;13.23;8.60;;;7.50;99.90;;;;;;5062691;28;20234;-72
2022/04/28 05:36:44;;;;;;;9.33;7.50;;;7.60;99.90;;;;;;5067481;28;20204;-72
2022/04/28 05:39:10;;;;;;;10.20;7.93;;;7.80;99.90;;;;;;5064868;28;20476;-72
2022/04/28 05:41:36;;;;;;;8.67;7.20;;;8.00;99.90;;;;;;5067650;28;20426;-72
2022/04/28 05:46:45;;;;;;;11.13;8.07;;;8.30;99.90;;;;;;5067529;28;20499;-72
2022/04/28 05:49:11;;;;;;;12.43;9.03;;;8.40;99.90;;;;;;5067724;28;20419;-72
2022/04/28 05:51:37;;;;;;;13.47;10.93;;;8.60;99.90;;;;;;5067519;28;20184;-72
2022/04/28 05:54:03;;;;;;;14.73;10.80;;;8.70;99.90;;;;;;5066876;28;20199;-71
2022/04/28 05:56:28;;;;;;;13.40;10.20;;;8.80;99.90;;;;;;5063960;28;20858;-71
2022/04/28 05:58:55;;;;;;;17.30;10.80;;;9.00;99.90;;;;;;5059333;28;20185;-72
2022/04/28 06:01:21;;;;;;;16.53;11.30;;;9.20;99.90;;;;;;5060205;28;20175;-71
2022/04/28 06:03:47;;;;;;;15.83;10.20;;;9.30;99.90;;;;;;5067726;28;20504;-71
2022/04/28 06:06:12;;;;;;;19.43;10.30;;;9.40;99.90;;;;;;5065937;28;20180;-71
2022/04/28 06:08:41;;;;;;;13.10;10.80;;;9.50;99.90;;;;;;5062759;28;20303;-71
2022/04/28 06:11:06;;;;;;;15.07;11.03;;;9.60;99.90;;;;;;5060148;28;20226;-71
2022/04/28 06:13:32;;;;;;;11.73;10.00;;;9.80;99.90;;;;;;5065555;28;20501;-71
2022/04/28 06:15:58;;;;;;;13.00;10.40;;;9.90;99.90;;;;;;5061993;28;20177;-72
2022/04/28 06:18:24;;;;;;;14.93;10.73;;;10.00;99.90;;;;;;5062127;28;20426;-71
2022/04/28 06:20:50;;;;;;;13.97;11.07;;;10.10;99.90;;;;;;5064681;28;20188;-71
2022/04/28 06:23:15;;;;;;;12.23;10.50;;;10.20;99.90;;;;;;5065792;28;20792;-72
2022/04/28 06:25:41;;;;;;;11.63;10.03;;;10.30;99.90;;;;;;5064946;28;20181;-75
2022/04/28 06:28:07;;;;;;;13.23;8.70;;;10.50;99.90;;;;;;5063556;28;20271;-74
2022/04/28 06:30:32;;;;;;;12.17;10.33;;;11.00;99.90;;;;;;5063653;28;20204;-77
2022/04/28 06:32:58;;;;;;;14.17;9.30;;;11.50;99.90;;;;;;5063614;28;20223;-75
2022/04/28 06:35:23;;;;;;;10.07;9.00;;;11.70;99.90;;;;;;5066187;28;20264;-75
2022/04/28 06:37:49;;;;;;;11.20;9.33;;;11.90;99.90;;;;;;5068966;28;20564;-74
2022/04/28 06:40:15;;;;;;;11.60;9.77;;;12.20;99.90;;;;;;5070346;28;20245;-72
2022/04/28 06:42:43;;;;;;;12.00;9.93;;;12.30;99.90;;;;;;5070506;28;20165;-71
2022/04/28 06:45:10;;;;;;;13.40;9.80;;;12.30;99.90;;;;;;5070727;28;20173;-71
2022/04/28 06:47:35;;;;;;;15.40;9.93;;;12.30;99.90;;;;;;5070694;28;20543;-72
2022/04/28 06:50:01;;;;;;;11.63;10.07;;;12.40;99.90;;;;;;5071099;28;20949;-72
2022/04/28 06:52:27;;;;;;;16.90;9.70;;;12.50;99.90;;;;;;5068787;28;20263;-71
2022/04/28 06:54:52;;;;;;;11.23;9.10;;;12.70;99.90;;;;;;5052510;28;20189;-71
2022/04/28 06:57:19;;;;;;;13.23;9.97;;;12.90;99.90;;;;;;5064235;28;20305;-70
2022/04/28 06:59:44;;;;;;;12.50;10.10;;;13.10;99.90;;;;;;5062460;28;20176;-70
2022/04/28 07:02:10;;;;;;;11.33;9.00;;;13.30;99.90;;;;;;5062635;28;20437;-72
2022/04/28 07:04:36;;;;;;;14.10;9.80;;;13.60;99.90;;;;;;5068722;28;20729;-70
2022/04/28 07:07:01;;;;;;;13.00;9.00;;;13.90;99.90;;;;;;5067797;28;20261;-71
2022/04/28 07:09:27;;;;;;;12.77;8.67;;;14.00;99.90;;;;;;5067136;28;20522;-72
2022/04/28 07:11:52;;;;;;;11.17;8.90;;;14.20;99.90;;;;;;5061523;28;20603;-71
2022/04/28 07:14:18;;;;;;;10.60;8.70;;;14.50;99.90;;;;;;5061894;28;20238;-71
2022/04/28 07:16:43;;;;;;;12.40;9.10;;;14.80;99.90;;;;;;5064389;28;20185;-71
2022/04/28 07:19:09;;;;;;;13.40;9.03;;;15.00;99.90;;;;;;5066115;28;20313;-70
2022/04/28 07:21:35;;;;;;;10.97;8.83;;;15.20;99.90;;;;;;5064937;28;20176;-71
2022/04/28 07:24:01;;;;;;;11.77;9.93;;;15.30;99.90;;;;;;5065038;28;20193;-70
2022/04/28 07:26:27;;;;;;;11.40;8.80;;;15.40;99.90;;;;;;5069210;28;20422;-70
2022/04/28 07:28:54;;;;;;;21.03;9.30;;;15.60;99.90;;;;;;5064754;28;20180;-71
2022/04/28 07:31:19;;;;;;;17.90;9.47;;;15.70;99.90;;;;;;5066928;28;20445;-70
2022/04/28 07:33:45;;;;;;;20.87;9.57;;;16.00;99.90;;;;;;5067559;28;20466;-70
2022/04/28 07:36:12;;;;;;;15.67;9.67;;;16.30;99.90;;;;;;5069739;28;20207;-70
2022/04/28 07:38:38;;;;;;;14.43;10.23;;;16.60;99.90;;;;;;5067223;28;20176;-71
2022/04/28 07:41:04;;;;;;;13.47;9.87;;;16.80;99.90;;;;;;5068305;28;20419;-70
2022/04/28 07:43:29;;;;;;;10.77;9.30;;;17.00;99.90;;;;;;5068311;28;20447;-70
2022/04/28 07:45:55;;;;;;;14.43;9.73;;;17.10;99.90;;;;;;5065952;28;20508;-71
2022/04/28 07:48:20;;;;;;;13.97;10.63;;;17.40;99.90;;;;;;5068948;28;20211;-71
2022/04/28 07:50:47;;;;;;;23.27;11.00;;;17.70;99.90;;;;;;5069161;28;20176;-71
2022/04/28 07:53:13;;;;;;;13.00;10.60;;;18.00;99.90;;;;;;5066284;28;20204;-70
2022/04/28 07:55:38;;;;;;;15.07;11.70;;;18.30;99.90;;;;;;5068657;28;20498;-71
2022/04/28 07:58:04;;;;;;;15.43;11.90;;;18.60;99.90;;;;;;5064448;28;20510;-71
2022/04/28 08:00:29;;;;;;;14.30;10.97;;;18.90;99.90;;;;;;5066923;28;20262;-70
2022/04/28 08:02:55;;;;;;;13.43;11.27;;;19.60;99.40;;;;;;5064797;28;20568;-71
2022/04/28 08:05:20;;;;;;;13.40;10.50;;;20.60;97.50;;;;;;5068574;28;20566;-71
2022/04/28 08:07:46;;;;;;;16.53;10.90;;;21.60;93.60;;;;;;5069171;28;20598;-70
2022/04/28 08:10:12;;;;;;;10.10;9.10;;;22.60;86.60;;;;;;5069561;28;20172;-71
2022/04/28 08:12:38;;;;;;;16.37;9.20;;;23.60;78.40;;;;;;5067413;28;20464;-71
2022/04/28 08:15:04;;;;;;;14.20;10.17;;;24.30;64.70;;;;;;5067705;28;20519;-71
2022/04/28 08:17:30;;;;;;;10.70;9.07;;;25.30;62.00;;;;;;5069062;28;20171;-72
2022/04/28 08:19:55;;;;;;;12.07;8.97;;;26.20;51.40;;;;;;5069417;28;20421;-71
2022/04/28 08:22:21;;;;;;;12.73;8.60;;;27.10;51.90;;;;;;5067072;28;20662;-71
2022/04/28 08:24:47;;;;;;;11.20;9.60;;;28.00;52.60;;;;;;5065455;28;20669;-71
2022/04/28 08:27:12;;;;;;;6.63;5.65;;;28.40;48.50;;;;;;5068399;28;20247;-72
2022/04/28 08:29:38;;;;;;;6.88;5.60;;;28.50;36.50;;;;;;5067455;28;20180;-73
2022/04/28 08:32:04;;;;;;;5.57;5.00;;;28.80;31.10;;;;;;5067896;28;20229;-72
2022/04/28 08:34:29;;;;;;;6.07;5.47;;;29.30;31.80;;;;;;5067336;28;20214;-71
2022/04/28 08:36:55;;;;;;;5.97;5.38;;;29.30;27.80;;;;;;5068397;28;20258;-71
2022/04/28 08:39:21;;;;;;;5.85;5.25;;;29.30;30.00;;;;;;5068767;28;20243;-72
2022/04/28 08:41:47;;;;;;;8.75;5.68;;;29.70;27.30;;;;;;5065332;28;20207;-72
2022/04/28 08:44:24;;;;;;;5.93;4.95;;;30.10;27.20;;;;;;5067490;28;20238;-71
2022/04/28 08:46:52;;;;;;;5.90;5.30;;;30.30;19.40;;;;;;5067667;28;20186;-72
2022/04/28 08:49:23;;;;;;;6.95;5.43;;;30.20;22.00;;;;;;5067031;28;20525;-72
2022/04/28 08:51:53;;;;;;;5.53;4.70;;;31.00;19.80;;;;;;5066322;28;20649;-72
2022/04/28 08:54:20;;;;;;;6.60;5.47;;;30.50;16.50;;;;;;5068582;28;20199;-71
2022/04/28 08:56:45;;;;;;;5.85;5.25;;;30.10;14.70;;;;;;5067463;28;20168;-72
2022/04/28 08:59:11;;;;;;;5.82;4.93;;;30.00;17.80;;;;;;5067174;28;20221;-72
2022/04/28 09:01:37;;;;;;;6.47;5.30;;;29.90;16.20;;;;;;5065905;28;20526;-72
2022/04/28 09:04:04;;;;;;;7.15;4.82;;;30.20;18.20;;;;;;5067576;28;20703;-72
2022/04/28 09:06:35;;;;;;;5.80;5.18;;;30.50;11.60;;;;;;5067911;28;20171;-72
2022/04/28 09:09:17;;;;;;;6.57;4.93;;;30.40;12.50;;;;;;5067607;28;20673;-73
2022/04/28 09:11:44;;;;;;;8.20;5.85;;;30.80;9.90;;;;;;5066750;28;20172;-73
2022/04/28 09:14:17;;;;;;;5.47;4.97;;;30.70;10.00;;;;;;5065932;28;20204;-72
2022/04/28 09:16:51;;;;;;;7.00;4.72;;;30.70;11.00;;;;;;5064950;28;20183;-73
2022/04/28 09:19:21;;;;;;;6.47;5.75;;;30.90;8.20;;;;;;5066559;28;20236;-73
2022/04/28 09:21:47;;;;;;;6.15;4.95;;;30.90;9.10;;;;;;5067725;28;20240;-73
2022/04/28 09:24:14;;;;;;;6.18;5.20;;;30.70;9.80;;;;;;5061956;28;20191;-73
2022/04/28 09:26:41;;;;;;;4.82;4.32;;;30.70;8.20;;;;;;5061906;28;20175;-73
2022/04/28 09:29:14;;;;;;;7.00;4.90;;;30.80;6.20;;;;;;5064928;28;20297;-73
2022/04/28 09:31:43;;;;;;;6.03;4.28;;;31.20;1.90;;;;;;5060389;28;20241;-74
2022/04/28 09:34:12;;;;;;;8.25;4.78;;;31.90;1.00;;;;;;5062955;28;20674;-73
2022/04/28 09:36:39;;;;;;;5.55;4.95;;;32.50;1.00;;;;;;5066252;28;20164;-73
2022/04/28 09:39:07;;;;;;;6.05;4.43;;;33.20;1.00;;;;;;5067369;28;20176;-74
2022/04/28 09:44:20;;;;;;;6.95;4.45;;;33.40;1.00;;;;;;5067462;28;21375;-73
2022/04/28 09:46:47;;;;;;;5.50;4.60;;;33.10;1.00;;;;;;5067059;28;20183;-74
2022/04/28 09:49:17;;;;;;;5.47;4.47;;;32.20;1.00;;;;;;5068322;28;20195;-73
2022/04/28 09:51:43;;;;;;;4.65;4.05;;;33.20;1.00;;;;;;5066168;28;20266;-73
2022/04/28 09:54:11;;;;;;;5.43;4.10;;;33.60;1.00;;;;;;5067941;28;20202;-73
2022/04/28 09:56:38;;;;;;;6.95;4.20;;;34.20;1.00;;;;;;5066691;28;20303;-73
2022/04/28 09:59:05;;;;;;;5.68;4.00;;;33.60;1.00;;;;;;5059543;28;20650;-73
2022/04/28 10:01:32;;;;;;;5.20;4.10;;;32.60;1.00;;;;;;5065852;28;20179;-71
2022/04/28 10:03:58;;;;;;;5.13;4.20;;;32.10;1.00;;;;;;5067442;28;20313;-71
2022/04/28 10:06:30;;;;;;;4.20;3.58;;;32.00;1.00;;;;;;5067180;28;20258;-73
2022/04/28 10:08:58;;;;;;;5.13;4.30;;;32.50;1.00;;;;;;5067556;28;20199;-73
2022/04/28 10:11:26;;;;;;;4.28;3.88;;;32.60;1.00;;;;;;5069549;28;20218;-73
2022/04/28 10:13:52;;;;;;;4.55;3.83;;;32.30;1.00;;;;;;5070207;28;20291;-73
2022/04/28 10:16:20;;;;;;;7.03;4.18;;;33.20;1.00;;;;;;5069387;28;20266;-73
2022/04/28 10:18:49;;;;;;;5.57;3.60;;;33.60;1.00;;;;;;5071654;28;20172;-73
2022/04/28 10:21:19;;;;;;;5.75;4.35;;;33.70;1.00;;;;;;5071386;28;20164;-73
2022/04/28 10:32:25;;;;;;;4.50;3.58;;;32.60;1.00;;;;;;5070708;28;20202;-74
2022/04/28 10:35:02;;;;;;;5.07;3.90;;;33.40;1.00;;;;;;5068013;28;20249;-74
2022/04/28 10:37:35;;;;;;;8.27;3.72;;;34.60;1.00;;;;;;5070943;28;20218;-73
2022/04/28 10:40:02;;;;;;;8.68;3.97;;;34.10;1.00;;;;;;5070632;28;20266;-74
2022/04/28 10:42:27;;;;;;;4.47;3.70;;;34.20;1.00;;;;;;5070486;28;20225;-73
2022/04/28 10:44:55;;;;;;;6.80;3.97;;;34.20;1.00;;;;;;5071423;28;20192;-74
2022/04/28 10:47:33;;;;;;;5.63;3.67;;;34.00;1.00;;;;;;5070671;28;20679;-74
2022/04/28 10:49:58;;;;;;;6.30;3.72;;;34.70;1.00;;;;;;5071933;28;20168;-73
2022/04/28 10:52:25;;;;;;;4.28;3.80;;;34.60;1.00;;;;;;5070384;28;20673;-73
2022/04/28 10:54:59;;;;;;;5.78;3.97;;;34.60;1.00;;;;;;5067261;28;20330;-73
2022/04/28 10:57:43;;;;;;;3.97;3.35;;;35.10;1.00;;;;;;5070468;28;20178;-73
2022/04/28 11:00:12;;;;;;;4.35;3.55;;;36.00;1.00;;;;;;5067799;28;20172;-73
2022/04/28 11:02:40;;;;;;;4.20;3.50;;;36.40;1.00;;;;;;5070653;28;20168;-73
2022/04/28 11:05:29;;;;;;;4.20;3.63;;;37.20;1.00;;;;;;5067918;28;20180;-73
2022/04/28 11:07:55;;;;;;;3.70;3.28;;;36.60;1.00;;;;;;5069075;28;20184;-74
2022/04/28 11:10:21;;;;;;;11.95;3.92;;;36.20;1.00;;;;;;5069091;28;20262;-73
2022/04/28 11:12:46;;;;;;;6.57;3.55;;;35.50;1.00;;;;;;5068258;28;20255;-73
2022/04/28 11:15:14;;;;;;;4.72;3.72;;;35.50;1.00;;;;;;5070399;28;20200;-73
2022/04/28 11:17:43;;;;;;;3.42;3.13;;;34.80;1.00;;;;;;5068778;28;20483;-73
2022/04/28 11:20:14;;;;;;;5.07;3.25;;;34.00;1.00;;;;;;5069988;28;20165;-73
2022/04/28 11:22:41;;;;;;;6.25;3.70;;;34.60;1.00;;;;;;5069911;28;20175;-74
2022/04/28 11:25:11;;;;;;;5.38;3.30;;;34.80;1.00;;;;;;5067874;28;20182;-73
2022/04/28 11:27:38;;;;;;;4.63;3.10;;;35.50;1.00;;;;;;5066305;28;20658;-73
2022/04/28 11:30:04;;;;;;;3.92;3.40;;;36.20;1.00;;;;;;5070682;28;20176;-74
2022/04/28 11:32:30;;;;;;;5.10;3.38;;;35.90;1.00;;;;;;5067927;28;20184;-74
2022/04/28 11:34:57;;;;;;;4.10;3.10;;;36.00;1.00;;;;;;5070447;28;20203;-73
2022/04/28 11:37:26;;;;;;;4.85;3.58;;;35.50;1.00;;;;;;5068365;28;20199;-73
2022/04/28 11:39:55;;;;;;;7.57;3.85;;;35.40;1.00;;;;;;5069826;28;20341;-73
2022/04/28 11:42:21;;;;;;;4.15;3.35;;;34.60;1.00;;;;;;5068949;28;20176;-73
2022/04/28 11:44:55;;;;;;;5.90;3.45;;;34.40;1.00;;;;;;5069716;28;20917;-74
2022/04/28 11:47:23;;;;;;;3.60;3.20;;;34.90;1.00;;;;;;5067460;28;20226;-73
2022/04/28 11:49:56;;;;;;;3.50;3.20;;;35.10;1.00;;;;;;5068853;28;20610;-74
2022/04/28 11:52:27;;;;;;;4.07;3.58;;;35.30;1.00;;;;;;5067137;28;20183;-74
2022/04/28 11:54:52;;;;;;;5.95;3.47;;;35.30;1.00;;;;;;5069182;28;20191;-73
2022/04/28 11:57:18;;;;;;;3.70;3.30;;;35.10;1.00;;;;;;5068424;28;20176;-74
2022/04/28 11:59:44;;;;;;;5.40;3.28;;;35.80;1.00;;;;;;5069177;28;20259;-74
2022/04/28 12:02:32;;;;;;;4.95;3.40;;;36.80;1.00;;;;;;5067306;28;20176;-74
2022/04/28 12:05:00;;;;;;;3.80;3.03;;;37.30;1.00;;;;;;5068329;28;20658;-73
2022/04/28 12:07:31;;;;;;;6.53;3.80;;;37.20;1.00;;;;;;5068691;28;20186;-73
2022/04/28 12:15:26;;;;;;;3.88;3.25;;;36.40;1.00;;;;;;5064074;28;20266;-72
2022/04/28 12:21:00;;;;;;;4.53;3.17;;;35.50;1.00;;;;;;5065255;28;20325;-72
2022/04/28 12:23:32;;;;;;;5.07;3.53;;;36.10;1.00;;;;;;5068801;28;20268;-72
2022/04/28 12:26:06;;;;;;;8.13;3.30;;;35.70;1.00;;;;;;5068686;28;20164;-71
2022/04/28 12:28:33;;;;;;;5.72;3.10;;;35.60;1.00;;;;;;5068838;28;20176;-72
2022/04/28 12:30:59;;;;;;;5.47;3.67;;;35.10;1.00;;;;;;5068329;28;20176;-73
2022/04/28 12:33:27;;;;;;;5.43;3.58;;;35.60;1.00;;;;;;5066767;28;20208;-72
2022/04/28 12:35:58;;;;;;;4.80;3.60;;;36.00;1.00;;;;;;5068508;28;20195;-73
2022/04/28 12:38:27;;;;;;;4.00;3.40;;;36.30;1.00;;;;;;5067597;28;20164;-71
2022/04/28 12:40:53;;;;;;;6.10;3.60;;;35.70;1.00;;;;;;5066582;28;20176;-72
2022/04/28 12:43:38;;;;;;;4.68;3.88;;;35.50;1.00;;;;;;5068129;28;20207;-72
2022/04/28 12:46:08;;;;;;;5.38;3.30;;;35.20;1.00;;;;;;5068186;28;20237;-72
2022/04/28 12:48:35;;;;;;;4.43;3.30;;;35.10;1.00;;;;;;5068581;28;20172;-72
2022/04/28 12:51:13;;;;;;;7.18;3.60;;;35.50;1.00;;;;;;5067829;28;20173;-72
2022/04/28 12:53:41;;;;;;;6.35;3.67;;;35.40;1.00;;;;;;5047350;28;20207;-72
2022/04/28 12:56:10;;;;;;;7.65;3.45;;;36.00;1.00;;;;;;5046811;28;20165;-73
2022/04/28 12:59:08;;;;;;;5.18;3.42;;;36.00;1.00;;;;;;5064949;28;20190;-72
2022/04/28 13:01:34;;;;;;;4.07;3.40;;;35.70;1.00;;;;;;5063301;28;20790;-72
2022/04/28 13:04:09;;;;;;;5.43;3.35;;;35.80;1.00;;;;;;5067104;28;20221;-72
2022/04/28 13:06:38;;;;;;;4.07;3.50;;;37.20;1.00;;;;;;5066736;28;20672;-71
2022/04/28 13:09:07;;;;;;;4.30;3.30;;;37.50;1.00;;;;;;5068502;28;20180;-72
2022/04/28 13:11:34;;;;;;;4.07;2.83;;;37.30;1.00;;;;;;5067426;28;20187;-72
2022/04/28 13:14:01;;;;;;;3.28;2.88;;;37.90;1.00;;;;;;5067042;28;20188;-72
2022/04/28 13:16:27;;;;;;;5.50;3.22;;;37.50;1.00;;;;;;5063377;28;20668;-72
2022/04/28 13:18:53;;;;;;;3.75;3.13;;;37.50;1.00;;;;;;5067063;28;20649;-72
2022/04/28 13:21:19;;;;;;;4.20;3.20;;;37.30;1.00;;;;;;5068003;28;20168;-72
2022/04/28 13:23:46;;;;;;;4.57;3.35;;;36.70;1.00;;;;;;5068197;28;20642;-72
2022/04/28 13:26:14;;;;;;;7.22;3.22;;;37.30;1.00;;;;;;5046129;28;20502;-72
2022/04/28 13:28:40;;;;;;;3.88;3.03;;;36.80;1.00;;;;;;5049550;28;20199;-72